createdAt,value
2018-03-02T00:00:13.860Z,-4.32
2018-03-02T00:00:39.961Z,-4.41
2018-03-02T00:01:06.056Z,-4.42
2018-03-02T00:01:32.168Z,-4.39
2018-03-02T00:01:58.270Z,-4.32
2018-03-02T00:02:24.374Z,-4.3
2018-03-02T00:02:50.462Z,-4.39
2018-03-02T00:03:16.559Z,-4.43
2018-03-02T00:03:42.660Z,-4.46
2018-03-02T00:04:08.756Z,-4.39
2018-03-02T00:04:34.858Z,-4.41
2018-03-02T00:05:00.952Z,-4.41
2018-03-02T00:05:27.055Z,-4.41
2018-03-02T00:05:53.149Z,-4.41
2018-03-02T00:06:19.254Z,-4.49
2018-03-02T00:06:45.352Z,-4.5
2018-03-02T00:07:11.450Z,-4.53
2018-03-02T00:07:37.565Z,-4.53
2018-03-02T00:08:03.659Z,-4.53
2018-03-02T00:08:29.756Z,-4.55
2018-03-02T00:08:55.851Z,-4.5
2018-03-02T00:09:21.945Z,-4.59
2018-03-02T00:09:48.043Z,-4.6
2018-03-02T00:10:14.152Z,-4.6
2018-03-02T00:10:40.269Z,-4.61
2018-03-02T00:11:06.368Z,-4.6
2018-03-02T00:11:32.465Z,-4.63
2018-03-02T00:11:58.564Z,-4.6
2018-03-02T00:12:24.658Z,-4.57
2018-03-02T00:12:50.757Z,-4.5
2018-03-02T00:13:16.858Z,-4.45
2018-03-02T00:13:42.951Z,-4.49
2018-03-02T00:14:09.044Z,-4.53
2018-03-02T00:14:35.147Z,-4.59
2018-03-02T00:15:01.238Z,-4.53
2018-03-02T00:15:27.331Z,-4.63
2018-03-02T00:15:53.454Z,-4.6
2018-03-02T00:16:19.560Z,-4.57
2018-03-02T00:16:45.647Z,-4.6
2018-03-02T00:17:11.743Z,-4.7
2018-03-02T00:17:37.842Z,-4.6
2018-03-02T00:18:03.935Z,-4.67
2018-03-02T00:18:30.051Z,-4.64
2018-03-02T00:18:56.149Z,-4.66
2018-03-02T00:19:22.264Z,-4.61
2018-03-02T00:19:48.361Z,-4.66
2018-03-02T00:20:14.453Z,-4.75
2018-03-02T00:20:40.557Z,-4.7
2018-03-02T00:21:06.653Z,-4.7
2018-03-02T00:21:32.746Z,-4.77
2018-03-02T00:21:58.848Z,-4.63
2018-03-02T00:22:24.943Z,-4.64
2018-03-02T00:22:51.045Z,-4.66
2018-03-02T00:23:17.143Z,-4.6
2018-03-02T00:23:43.241Z,-4.61
2018-03-02T00:24:09.337Z,-4.52
2018-03-02T00:24:35.446Z,-4.55
2018-03-02T00:25:01.544Z,-4.59
2018-03-02T00:25:27.646Z,-4.53
2018-03-02T00:25:53.743Z,-4.64
2018-03-02T00:26:19.831Z,-4.63
2018-03-02T00:26:45.940Z,-4.63
2018-03-02T00:27:12.033Z,-4.64
2018-03-02T00:27:38.129Z,-4.64
2018-03-02T00:28:04.225Z,-4.63
2018-03-02T00:28:30.324Z,-4.71
2018-03-02T00:28:56.435Z,-4.57
2018-03-02T00:29:22.538Z,-4.64
2018-03-02T00:29:48.629Z,-4.57
2018-03-02T00:30:14.728Z,-4.59
2018-03-02T00:30:40.827Z,-4.6
2018-03-02T00:31:06.939Z,-4.6
2018-03-02T00:31:33.035Z,-4.63
2018-03-02T00:31:59.130Z,-4.63
2018-03-02T00:32:25.225Z,-4.67
2018-03-02T00:32:51.327Z,-4.61
2018-03-02T00:33:17.422Z,-4.7
2018-03-02T00:33:43.527Z,-4.73
2018-03-02T00:34:09.622Z,-4.7
2018-03-02T00:34:35.716Z,-4.67
2018-03-02T00:35:01.816Z,-4.71
2018-03-02T00:35:27.915Z,-4.67
2018-03-02T00:35:54.016Z,-4.71
2018-03-02T00:36:20.105Z,-4.77
2018-03-02T00:36:46.204Z,-4.79
2018-03-02T00:37:12.299Z,-4.77
2018-03-02T00:37:38.392Z,-4.78
2018-03-02T00:38:04.491Z,-4.71
2018-03-02T00:38:30.585Z,-4.67
2018-03-02T00:38:56.679Z,-4.71
2018-03-02T00:39:22.795Z,-4.67
2018-03-02T00:39:48.899Z,-4.73
2018-03-02T00:40:14.992Z,-4.78
2018-03-02T00:40:41.089Z,-4.85
2018-03-02T00:41:07.194Z,-4.71
2018-03-02T00:41:33.303Z,-4.77
2018-03-02T00:41:59.407Z,-4.71
2018-03-02T00:42:25.504Z,-4.73
2018-03-02T00:42:51.601Z,-4.73
2018-03-02T00:43:17.717Z,-4.69
2018-03-02T00:43:43.809Z,-4.7
2018-03-02T00:44:09.908Z,-4.7
2018-03-02T00:44:36.002Z,-4.69
2018-03-02T00:45:02.103Z,-4.75
2018-03-02T00:45:28.202Z,-4.69
2018-03-02T00:45:54.317Z,-4.64
2018-03-02T00:46:20.412Z,-4.63
2018-03-02T00:46:46.511Z,-4.61
2018-03-02T00:47:12.605Z,-4.64
2018-03-02T00:47:38.707Z,-4.67
2018-03-02T00:48:04.819Z,-4.69
2018-03-02T00:48:30.895Z,-4.77
2018-03-02T00:48:56.997Z,-4.79
2018-03-02T00:49:23.093Z,-4.75
2018-03-02T00:49:49.198Z,-4.77
2018-03-02T00:50:15.289Z,-4.71
2018-03-02T00:50:41.400Z,-4.73
2018-03-02T00:51:07.520Z,-4.71
2018-03-02T00:51:33.617Z,-4.77
2018-03-02T00:51:59.720Z,-4.85
2018-03-02T00:52:25.823Z,-4.82
2018-03-02T00:52:51.915Z,-4.84
2018-03-02T00:53:18.010Z,-4.84
2018-03-02T00:53:44.123Z,-4.84
2018-03-02T00:54:10.230Z,-4.82
2018-03-02T00:54:36.322Z,-4.78
2018-03-02T00:55:02.441Z,-4.82
2018-03-02T00:55:28.537Z,-4.87
2018-03-02T00:55:54.637Z,-4.92
2018-03-02T00:56:20.731Z,-4.87
2018-03-02T00:56:46.824Z,-4.92
2018-03-02T00:57:12.930Z,-4.87
2018-03-02T00:57:39.021Z,-4.98
2018-03-02T00:58:05.111Z,-4.99
2018-03-02T00:58:31.208Z,-4.85
2018-03-02T00:58:57.304Z,-4.89
2018-03-02T00:59:23.401Z,-4.91
2018-03-02T00:59:49.520Z,-4.95
2018-03-02T01:00:15.614Z,-4.95
2018-03-02T01:00:41.708Z,-4.91
2018-03-02T01:01:07.808Z,-4.98
2018-03-02T01:01:33.903Z,-4.92
2018-03-02T01:02:00.004Z,-4.92
2018-03-02T01:02:26.097Z,-4.89
2018-03-02T01:02:52.200Z,-4.85
2018-03-02T01:03:18.299Z,-4.95
2018-03-02T01:03:44.395Z,-4.89
2018-03-02T01:04:10.497Z,-4.91
2018-03-02T01:04:36.587Z,-4.92
2018-03-02T01:05:02.689Z,-4.96
2018-03-02T01:05:28.782Z,-4.85
2018-03-02T01:05:54.879Z,-4.91
2018-03-02T01:06:20.995Z,-5.05
2018-03-02T01:06:47.088Z,-5.1
2018-03-02T01:07:13.188Z,-5.13
2018-03-02T01:07:39.284Z,-5.06
2018-03-02T01:08:05.387Z,-5.06
2018-03-02T01:08:31.488Z,-5.09
2018-03-02T01:08:57.579Z,-5.03
2018-03-02T01:09:23.679Z,-5.02
2018-03-02T01:09:49.770Z,-5.03
2018-03-02T01:10:15.865Z,-4.91
2018-03-02T01:10:41.988Z,-4.92
2018-03-02T01:11:08.091Z,-4.96
2018-03-02T01:11:34.173Z,-4.98
2018-03-02T01:12:00.274Z,-4.96
2018-03-02T01:12:26.369Z,-4.95
2018-03-02T01:12:52.484Z,-4.96
2018-03-02T01:13:18.571Z,-5.02
2018-03-02T01:13:44.685Z,-5.02
2018-03-02T01:14:10.782Z,-5
2018-03-02T01:14:36.878Z,-4.99
2018-03-02T01:15:02.979Z,-4.87
2018-03-02T01:15:29.070Z,-5
2018-03-02T01:15:55.161Z,-4.89
2018-03-02T01:16:21.259Z,-5
2018-03-02T01:16:47.361Z,-5.02
2018-03-02T01:17:13.461Z,-5
2018-03-02T01:17:39.573Z,-5.05
2018-03-02T01:18:05.685Z,-4.99
2018-03-02T01:18:31.783Z,-5.08
2018-03-02T01:18:57.884Z,-5.14
2018-03-02T01:19:23.977Z,-5.06
2018-03-02T01:19:50.080Z,-5.19
2018-03-02T01:20:16.168Z,-5.02
2018-03-02T01:20:42.265Z,-5.06
2018-03-02T01:21:08.377Z,-5.03
2018-03-02T01:21:34.471Z,-5
2018-03-02T01:22:00.574Z,-5.09
2018-03-02T01:22:26.668Z,-5.13
2018-03-02T01:22:52.767Z,-5
2018-03-02T01:23:18.867Z,-5.1
2018-03-02T01:23:44.958Z,-5
2018-03-02T01:24:11.059Z,-5.13
2018-03-02T01:24:37.150Z,-5.08
2018-03-02T01:25:03.245Z,-5.06
2018-03-02T01:25:29.365Z,-5.03
2018-03-02T01:25:55.457Z,-5.13
2018-03-02T01:26:21.560Z,-5.03
2018-03-02T01:26:47.649Z,-5.02
2018-03-02T01:27:13.750Z,-5.08
2018-03-02T01:27:39.856Z,-4.99
2018-03-02T01:28:05.962Z,-4.99
2018-03-02T01:28:32.064Z,-5.05
2018-03-02T01:28:58.154Z,-4.84
2018-03-02T01:29:24.255Z,-5.03
2018-03-02T01:29:50.349Z,-5
2018-03-02T01:30:16.460Z,-5.09
2018-03-02T01:30:42.552Z,-5.09
2018-03-02T01:31:08.652Z,-5.05
2018-03-02T01:31:34.750Z,-5.09
2018-03-02T01:32:00.846Z,-5.03
2018-03-02T01:32:26.958Z,-5.06
2018-03-02T01:32:53.060Z,-5.03
2018-03-02T01:33:19.187Z,-5.13
2018-03-02T01:33:45.286Z,-5.02
2018-03-02T01:34:11.381Z,-5.09
2018-03-02T01:34:37.477Z,-5.09
2018-03-02T01:35:03.608Z,-5.03
2018-03-02T01:35:29.694Z,-5.17
2018-03-02T01:35:55.796Z,-5.06
2018-03-02T01:36:21.897Z,-5.08
2018-03-02T01:36:47.997Z,-5.09
2018-03-02T01:37:14.093Z,-5.1
2018-03-02T01:37:40.190Z,-5.1
2018-03-02T01:38:06.288Z,-5.1
2018-03-02T01:38:32.385Z,-5.14
2018-03-02T01:38:58.486Z,-5.09
2018-03-02T01:39:24.581Z,-5.14
2018-03-02T01:39:50.677Z,-5.06
2018-03-02T01:40:16.779Z,-5.13
2018-03-02T01:40:42.886Z,-5.13
2018-03-02T01:41:09.003Z,-5.13
2018-03-02T01:41:35.095Z,-5.08
2018-03-02T01:42:01.187Z,-5.22
2018-03-02T01:42:27.288Z,-5.1
2018-03-02T01:42:53.383Z,-5.19
2018-03-02T01:43:19.481Z,-5.1
2018-03-02T01:43:45.586Z,-5.14
2018-03-02T01:44:11.678Z,-5.13
2018-03-02T01:44:37.773Z,-5.05
2018-03-02T01:45:03.875Z,-5.14
2018-03-02T01:45:29.971Z,-5.06
2018-03-02T01:45:56.067Z,-5.09
2018-03-02T01:46:22.181Z,-5.22
2018-03-02T01:46:48.275Z,-5.09
2018-03-02T01:47:14.378Z,-5.21
2018-03-02T01:47:40.466Z,-5.25
2018-03-02T01:48:06.561Z,-5.22
2018-03-02T01:48:32.662Z,-5.27
2018-03-02T01:48:58.752Z,-5.06
2018-03-02T01:49:24.849Z,-5.13
2018-03-02T01:49:50.955Z,-5.14
2018-03-02T01:50:17.044Z,-5.27
2018-03-02T01:50:43.142Z,-5.25
2018-03-02T01:51:12.291Z,-5.17
2018-03-02T01:51:38.386Z,-5.28
2018-03-02T01:52:04.485Z,-5.22
2018-03-02T01:52:30.601Z,-5.22
2018-03-02T01:52:56.710Z,-5.22
2018-03-02T01:53:22.811Z,-5.24
2018-03-02T01:53:48.904Z,-5.27
2018-03-02T01:54:15.006Z,-5.22
2018-03-02T01:54:41.103Z,-5.22
2018-03-02T01:55:07.202Z,-5.24
2018-03-02T01:55:33.294Z,-5.27
2018-03-02T01:55:59.415Z,-5.21
2018-03-02T01:56:25.511Z,-5.22
2018-03-02T01:56:51.606Z,-5.33
2018-03-02T01:57:17.704Z,-5.28
2018-03-02T01:57:43.808Z,-5.22
2018-03-02T01:58:09.909Z,-5.24
2018-03-02T01:58:35.998Z,-5.24
2018-03-02T01:59:02.095Z,-5.25
2018-03-02T01:59:28.193Z,-5.21
2018-03-02T01:59:54.296Z,-5.21
2018-03-02T02:00:20.394Z,-5.24
2018-03-02T02:00:46.483Z,-5.39
2018-03-02T02:01:12.584Z,-5.31
2018-03-02T02:01:38.680Z,-5.38
2018-03-02T02:02:04.779Z,-5.31
2018-03-02T02:02:30.877Z,-5.4
2018-03-02T02:02:56.977Z,-5.35
2018-03-02T02:03:23.086Z,-5.35
2018-03-02T02:03:49.176Z,-5.31
2018-03-02T02:04:15.273Z,-5.35
2018-03-02T02:04:41.379Z,-5.27
2018-03-02T02:05:07.478Z,-5.25
2018-03-02T02:05:33.574Z,-5.25
2018-03-02T02:05:59.676Z,-5.19
2018-03-02T02:06:25.770Z,-5.14
2018-03-02T02:06:51.867Z,-5.08
2018-03-02T02:07:17.972Z,-5.22
2018-03-02T02:07:44.063Z,-5.18
2018-03-02T02:08:10.166Z,-5.25
2018-03-02T02:08:36.265Z,-5.24
2018-03-02T02:09:02.367Z,-5.21
2018-03-02T02:09:28.464Z,-5.25
2018-03-02T02:09:54.562Z,-5.19
2018-03-02T02:10:20.676Z,-5.22
2018-03-02T02:10:46.786Z,-5.24
2018-03-02T02:11:12.890Z,-5.27
2018-03-02T02:11:38.982Z,-5.27
2018-03-02T02:12:05.080Z,-5.29
2018-03-02T02:12:31.182Z,-5.31
2018-03-02T02:12:57.275Z,-5.35
2018-03-02T02:13:23.374Z,-5.46
2018-03-02T02:13:49.471Z,-5.42
2018-03-02T02:14:15.574Z,-5.38
2018-03-02T02:14:41.672Z,-5.4
2018-03-02T02:15:07.773Z,-5.46
2018-03-02T02:15:33.873Z,-5.45
2018-03-02T02:15:59.970Z,-5.39
2018-03-02T02:16:26.069Z,-5.4
2018-03-02T02:16:52.171Z,-5.4
2018-03-02T02:17:18.270Z,-5.31
2018-03-02T02:17:44.381Z,-5.4
2018-03-02T02:18:10.476Z,-5.39
2018-03-02T02:18:36.573Z,-5.39
2018-03-02T02:19:02.668Z,-5.38
2018-03-02T02:19:28.772Z,-5.36
2018-03-02T02:19:54.866Z,-5.38
2018-03-02T02:20:20.964Z,-5.31
2018-03-02T02:20:47.063Z,-5.31
2018-03-02T02:21:13.157Z,-5.38
2018-03-02T02:21:39.260Z,-5.18
2018-03-02T02:22:05.356Z,-5.19
2018-03-02T02:22:31.453Z,-5.27
2018-03-02T02:22:57.554Z,-5.24
2018-03-02T02:23:23.650Z,-5.25
2018-03-02T02:23:49.763Z,-5.28
2018-03-02T02:24:15.884Z,-5.1
2018-03-02T02:24:41.977Z,-5.22
2018-03-02T02:25:08.083Z,-5.22
2018-03-02T02:25:34.174Z,-5.14
2018-03-02T02:26:00.268Z,-5.05
2018-03-02T02:26:26.367Z,-5.06
2018-03-02T02:26:52.475Z,-5.14
2018-03-02T02:27:18.569Z,-5.06
2018-03-02T02:27:44.661Z,-5.18
2018-03-02T02:28:10.762Z,-5.28
2018-03-02T02:28:36.860Z,-5.17
2018-03-02T02:29:02.953Z,-5.1
2018-03-02T02:29:29.049Z,-5.13
2018-03-02T02:29:55.151Z,-5.03
2018-03-02T02:30:21.249Z,-5.13
2018-03-02T02:30:47.346Z,-5.08
2018-03-02T02:31:13.448Z,-5.06
2018-03-02T02:31:39.560Z,-5.13
2018-03-02T02:32:05.661Z,-5.13
2018-03-02T02:32:31.774Z,-5.06
2018-03-02T02:32:57.900Z,-5.05
2018-03-02T02:33:24.010Z,-5.09
2018-03-02T02:33:50.109Z,-5.06
2018-03-02T02:34:16.206Z,-5.05
2018-03-02T02:34:42.308Z,-5.27
2018-03-02T02:35:08.400Z,-5.27
2018-03-02T02:35:34.498Z,-5.19
2018-03-02T02:36:00.596Z,-5.31
2018-03-02T02:36:26.710Z,-5.25
2018-03-02T02:36:52.806Z,-5.33
2018-03-02T02:37:18.909Z,-5.38
2018-03-02T02:37:45.017Z,-5.36
2018-03-02T02:38:11.097Z,-5.35
2018-03-02T02:38:37.219Z,-5.38
2018-03-02T02:39:03.346Z,-5.36
2018-03-02T02:39:29.450Z,-5.39
2018-03-02T02:39:55.547Z,-5.33
2018-03-02T02:40:21.703Z,-5.39
2018-03-02T02:40:47.756Z,-5.39
2018-03-02T02:41:13.863Z,-5.46
2018-03-02T02:41:39.957Z,-5.46
2018-03-02T02:42:06.054Z,-5.47
2018-03-02T02:42:32.152Z,-5.43
2018-03-02T02:42:58.277Z,-5.45
2018-03-02T02:43:24.374Z,-5.38
2018-03-02T02:43:50.472Z,-5.4
2018-03-02T02:44:16.563Z,-5.42
2018-03-02T02:44:42.665Z,-5.46
2018-03-02T02:45:08.781Z,-5.45
2018-03-02T02:45:34.891Z,-5.38
2018-03-02T02:46:00.989Z,-5.46
2018-03-02T02:46:27.097Z,-5.54
2018-03-02T02:46:53.198Z,-5.49
2018-03-02T02:47:19.315Z,-5.42
2018-03-02T02:47:45.415Z,-5.49
2018-03-02T02:48:11.517Z,-5.4
2018-03-02T02:48:37.632Z,-5.42
2018-03-02T02:49:03.740Z,-5.45
2018-03-02T02:49:29.842Z,-5.43
2018-03-02T02:49:55.941Z,-5.45
2018-03-02T02:50:22.041Z,-5.49
2018-03-02T02:50:48.133Z,-5.53
2018-03-02T02:51:14.236Z,-5.47
2018-03-02T02:51:40.333Z,-5.46
2018-03-02T02:52:06.428Z,-5.51
2018-03-02T02:52:32.560Z,-5.51
2018-03-02T02:52:58.658Z,-5.58
2018-03-02T02:53:24.752Z,-5.6
2018-03-02T02:53:50.848Z,-5.61
2018-03-02T02:54:16.948Z,-5.53
2018-03-02T02:54:43.045Z,-5.47
2018-03-02T02:55:09.169Z,-5.56
2018-03-02T02:55:35.265Z,-5.54
2018-03-02T02:56:01.388Z,-5.45
2018-03-02T02:56:27.484Z,-5.47
2018-03-02T02:56:53.593Z,-5.54
2018-03-02T02:57:19.692Z,-5.54
2018-03-02T02:57:45.790Z,-5.51
2018-03-02T02:58:11.884Z,-5.54
2018-03-02T02:58:38.005Z,-5.49
2018-03-02T02:59:04.098Z,-5.58
2018-03-02T02:59:30.200Z,-5.51
2018-03-02T02:59:56.297Z,-5.47
2018-03-02T03:00:22.391Z,-5.58
2018-03-02T03:00:48.501Z,-5.6
2018-03-02T03:01:14.587Z,-5.64
2018-03-02T03:01:40.689Z,-5.66
2018-03-02T03:02:06.787Z,-5.57
2018-03-02T03:02:32.888Z,-5.63
2018-03-02T03:02:58.985Z,-5.63
2018-03-02T03:03:25.107Z,-5.63
2018-03-02T03:03:51.235Z,-5.58
2018-03-02T03:04:17.335Z,-5.6
2018-03-02T03:04:43.427Z,-5.56
2018-03-02T03:05:09.521Z,-5.58
2018-03-02T03:05:35.621Z,-5.57
2018-03-02T03:06:01.731Z,-5.61
2018-03-02T03:06:27.847Z,-5.58
2018-03-02T03:06:53.946Z,-5.51
2018-03-02T03:07:20.048Z,-5.58
2018-03-02T03:07:46.148Z,-5.57
2018-03-02T03:08:12.248Z,-5.6
2018-03-02T03:08:38.348Z,-5.6
2018-03-02T03:09:04.443Z,-5.56
2018-03-02T03:09:30.538Z,-5.68
2018-03-02T03:09:56.661Z,-5.63
2018-03-02T03:10:22.753Z,-5.57
2018-03-02T03:10:48.846Z,-5.57
2018-03-02T03:11:14.950Z,-5.6
2018-03-02T03:11:41.048Z,-5.58
2018-03-02T03:12:07.148Z,-5.63
2018-03-02T03:12:33.243Z,-5.58
2018-03-02T03:12:59.339Z,-5.6
2018-03-02T03:13:25.440Z,-5.63
2018-03-02T03:13:51.540Z,-5.64
2018-03-02T03:14:17.633Z,-5.63
2018-03-02T03:14:43.729Z,-5.74
2018-03-02T03:15:09.831Z,-5.74
2018-03-02T03:15:35.927Z,-5.76
2018-03-02T03:16:02.026Z,-5.75
2018-03-02T03:16:28.125Z,-5.81
2018-03-02T03:16:54.219Z,-5.78
2018-03-02T03:17:20.320Z,-5.72
2018-03-02T03:17:46.418Z,-5.79
2018-03-02T03:18:12.516Z,-5.75
2018-03-02T03:18:38.610Z,-5.81
2018-03-02T03:19:04.711Z,-5.78
2018-03-02T03:19:30.821Z,-5.71
2018-03-02T03:19:56.916Z,-5.64
2018-03-02T03:20:23.019Z,-5.61
2018-03-02T03:20:49.116Z,-5.6
2018-03-02T03:21:15.217Z,-5.61
2018-03-02T03:21:41.313Z,-5.61
2018-03-02T03:22:07.411Z,-5.58
2018-03-02T03:22:33.515Z,-5.67
2018-03-02T03:22:59.609Z,-5.71
2018-03-02T03:23:25.725Z,-5.67
2018-03-02T03:23:51.817Z,-5.67
2018-03-02T03:24:17.916Z,-5.78
2018-03-02T03:24:44.017Z,-5.78
2018-03-02T03:25:10.112Z,-5.75
2018-03-02T03:25:36.232Z,-5.76
2018-03-02T03:26:02.316Z,-5.79
2018-03-02T03:26:28.419Z,-5.78
2018-03-02T03:26:54.552Z,-5.72
2018-03-02T03:27:20.650Z,-5.71
2018-03-02T03:27:46.750Z,-5.61
2018-03-02T03:28:12.849Z,-5.63
2018-03-02T03:28:38.947Z,-5.6
2018-03-02T03:29:05.041Z,-5.64
2018-03-02T03:29:31.138Z,-5.57
2018-03-02T03:29:57.242Z,-5.61
2018-03-02T03:30:23.350Z,-5.71
2018-03-02T03:30:49.451Z,-5.79
2018-03-02T03:31:15.563Z,-5.67
2018-03-02T03:31:41.663Z,-5.76
2018-03-02T03:32:07.762Z,-5.81
2018-03-02T03:32:33.860Z,-5.76
2018-03-02T03:32:59.956Z,-5.76
2018-03-02T03:33:26.072Z,-5.78
2018-03-02T03:33:52.174Z,-5.81
2018-03-02T03:34:18.272Z,-5.79
2018-03-02T03:34:44.366Z,-5.92
2018-03-02T03:35:10.469Z,-5.79
2018-03-02T03:35:36.560Z,-5.76
2018-03-02T03:36:02.662Z,-5.92
2018-03-02T03:36:28.764Z,-5.89
2018-03-02T03:36:54.857Z,-5.9
2018-03-02T03:37:20.990Z,-6
2018-03-02T03:37:47.049Z,-5.99
2018-03-02T03:38:13.147Z,-6.03
2018-03-02T03:38:39.245Z,-6.02
2018-03-02T03:39:05.356Z,-6.02
2018-03-02T03:39:31.475Z,-6.17
2018-03-02T03:39:57.569Z,-6.14
2018-03-02T03:40:23.681Z,-6.11
2018-03-02T03:40:49.782Z,-6.11
2018-03-02T03:41:15.872Z,-6.11
2018-03-02T03:41:41.975Z,-6.14
2018-03-02T03:42:08.069Z,-6.17
2018-03-02T03:42:34.173Z,-6.03
2018-03-02T03:43:00.280Z,-5.96
2018-03-02T03:43:26.379Z,-5.85
2018-03-02T03:43:52.476Z,-5.9
2018-03-02T03:44:18.574Z,-5.81
2018-03-02T03:44:44.676Z,-5.82
2018-03-02T03:45:10.768Z,-5.76
2018-03-02T03:45:36.869Z,-5.85
2018-03-02T03:46:02.971Z,-5.86
2018-03-02T03:46:29.099Z,-5.79
2018-03-02T03:46:55.192Z,-5.92
2018-03-02T03:47:21.286Z,-5.92
2018-03-02T03:47:47.401Z,-5.93
2018-03-02T03:48:13.505Z,-5.96
2018-03-02T03:48:39.598Z,-5.9
2018-03-02T03:49:05.699Z,-5.92
2018-03-02T03:49:31.790Z,-5.92
2018-03-02T03:49:57.886Z,-5.9
2018-03-02T03:50:23.986Z,-6.05
2018-03-02T03:50:50.076Z,-5.96
2018-03-02T03:51:16.207Z,-5.95
2018-03-02T03:51:42.273Z,-5.99
2018-03-02T03:52:08.380Z,-5.92
2018-03-02T03:52:34.476Z,-6
2018-03-02T03:53:00.590Z,-6
2018-03-02T03:53:26.690Z,-5.99
2018-03-02T03:53:52.784Z,-5.95
2018-03-02T03:54:18.889Z,-5.96
2018-03-02T03:54:44.990Z,-5.92
2018-03-02T03:55:11.089Z,-5.95
2018-03-02T03:55:37.185Z,-5.96
2018-03-02T03:56:03.280Z,-5.97
2018-03-02T03:56:29.375Z,-6.07
2018-03-02T03:56:55.472Z,-6.1
2018-03-02T03:57:21.569Z,-6.08
2018-03-02T03:57:47.668Z,-6.13
2018-03-02T03:58:13.779Z,-6.08
2018-03-02T03:58:39.880Z,-5.99
2018-03-02T03:59:05.976Z,-6
2018-03-02T03:59:32.072Z,-5.93
2018-03-02T03:59:58.172Z,-6.03
2018-03-02T04:00:24.268Z,-6
2018-03-02T04:00:50.361Z,-5.96
2018-03-02T04:01:16.461Z,-5.96
2018-03-02T04:01:42.564Z,-5.97
2018-03-02T04:02:08.657Z,-5.97
2018-03-02T04:02:34.769Z,-6.05
2018-03-02T04:03:00.891Z,-5.95
2018-03-02T04:03:26.992Z,-5.96
2018-03-02T04:03:53.087Z,-5.97
2018-03-02T04:04:19.193Z,-6.07
2018-03-02T04:04:45.276Z,-6.02
2018-03-02T04:05:11.371Z,-6.05
2018-03-02T04:05:37.473Z,-5.99
2018-03-02T04:06:03.584Z,-6.03
2018-03-02T04:06:29.684Z,-6.13
2018-03-02T04:06:55.785Z,-6.1
2018-03-02T04:07:21.898Z,-6.05
2018-03-02T04:07:47.995Z,-6.07
2018-03-02T04:08:14.096Z,-6.02
2018-03-02T04:08:40.214Z,-6.02
2018-03-02T04:09:06.307Z,-6.03
2018-03-02T04:09:32.401Z,-5.95
2018-03-02T04:09:58.501Z,-6
2018-03-02T04:10:24.595Z,-5.99
2018-03-02T04:10:50.699Z,-6.05
2018-03-02T04:11:16.796Z,-6.07
2018-03-02T04:11:42.894Z,-6.1
2018-03-02T04:12:08.993Z,-6.02
2018-03-02T04:12:35.094Z,-6.07
2018-03-02T04:13:01.184Z,-6.17
2018-03-02T04:13:27.283Z,-6.18
2018-03-02T04:13:53.399Z,-6.23
2018-03-02T04:14:19.495Z,-6.26
2018-03-02T04:14:45.596Z,-6.34
2018-03-02T04:15:11.688Z,-6.29
2018-03-02T04:15:37.783Z,-6.29
2018-03-02T04:16:03.898Z,-6.31
2018-03-02T04:16:29.998Z,-6.29
2018-03-02T04:16:56.085Z,-6.29
2018-03-02T04:17:22.187Z,-6.23
2018-03-02T04:17:48.286Z,-6.28
2018-03-02T04:18:14.399Z,-6.21
2018-03-02T04:18:40.498Z,-6.24
2018-03-02T04:19:06.590Z,-6.34
2018-03-02T04:19:32.691Z,-6.29
2018-03-02T04:19:58.791Z,-6.28
2018-03-02T04:20:24.884Z,-6.31
2018-03-02T04:20:50.984Z,-6.34
2018-03-02T04:21:17.076Z,-6.47
2018-03-02T04:21:43.182Z,-6.44
2018-03-02T04:22:09.276Z,-6.39
2018-03-02T04:22:35.375Z,-6.31
2018-03-02T04:23:01.471Z,-6.36
2018-03-02T04:23:27.571Z,-6.36
2018-03-02T04:23:53.667Z,-6.21
2018-03-02T04:24:19.761Z,-6.29
2018-03-02T04:24:45.876Z,-6.2
2018-03-02T04:25:11.981Z,-6.28
2018-03-02T04:25:38.077Z,-6.23
2018-03-02T04:26:04.170Z,-6.17
2018-03-02T04:26:30.273Z,-6.14
2018-03-02T04:26:56.371Z,-6.14
2018-03-02T04:27:22.492Z,-6.18
2018-03-02T04:27:48.588Z,-6.17
2018-03-02T04:28:14.690Z,-6.17
2018-03-02T04:28:40.784Z,-6.08
2018-03-02T04:29:06.903Z,-6.17
2018-03-02T04:29:32.996Z,-6.08
2018-03-02T04:29:59.099Z,-6.13
2018-03-02T04:30:25.194Z,-6.15
2018-03-02T04:30:51.291Z,-6.18
2018-03-02T04:31:17.413Z,-6.11
2018-03-02T04:31:43.478Z,-6.13
2018-03-02T04:32:09.588Z,-6.14
2018-03-02T04:32:35.684Z,-6.11
2018-03-02T04:33:01.782Z,-6.1
2018-03-02T04:33:27.875Z,-6.15
2018-03-02T04:33:53.977Z,-6.2
2018-03-02T04:34:20.072Z,-6.21
2018-03-02T04:34:46.172Z,-6.24
2018-03-02T04:35:12.267Z,-6.24
2018-03-02T04:35:38.360Z,-6.26
2018-03-02T04:36:04.465Z,-6.31
2018-03-02T04:36:30.567Z,-6.31
2018-03-02T04:36:56.660Z,-6.26
2018-03-02T04:37:22.757Z,-6.23
2018-03-02T04:37:48.855Z,-6.31
2018-03-02T04:38:14.948Z,-6.28
2018-03-02T04:38:41.055Z,-6.28
2018-03-02T04:39:07.145Z,-6.29
2018-03-02T04:39:33.245Z,-6.31
2018-03-02T04:39:59.342Z,-6.24
2018-03-02T04:40:25.436Z,-6.32
2018-03-02T04:40:51.534Z,-6.31
2018-03-02T04:41:17.628Z,-6.24
2018-03-02T04:41:43.723Z,-6.28
2018-03-02T04:42:09.851Z,-6.29
2018-03-02T04:42:35.929Z,-6.26
2018-03-02T04:43:02.030Z,-6.26
2018-03-02T04:43:28.133Z,-6.28
2018-03-02T04:43:54.251Z,-6.34
2018-03-02T04:44:20.350Z,-6.26
2018-03-02T04:44:46.447Z,-6.28
2018-03-02T04:45:12.548Z,-6.26
2018-03-02T04:45:38.648Z,-6.28
2018-03-02T04:46:04.747Z,-6.36
2018-03-02T04:46:30.840Z,-6.34
2018-03-02T04:46:56.936Z,-6.46
2018-03-02T04:47:23.037Z,-6.47
2018-03-02T04:47:49.143Z,-6.42
2018-03-02T04:48:15.237Z,-6.42
2018-03-02T04:48:41.328Z,-6.34
2018-03-02T04:49:07.432Z,-6.34
2018-03-02T04:49:33.559Z,-6.32
2018-03-02T04:49:59.645Z,-6.35
2018-03-02T04:50:25.737Z,-6.35
2018-03-02T04:50:51.838Z,-6.35
2018-03-02T04:51:17.954Z,-6.36
2018-03-02T04:51:44.047Z,-6.32
2018-03-02T04:52:10.141Z,-6.34
2018-03-02T04:52:36.239Z,-6.39
2018-03-02T04:53:02.331Z,-6.34
2018-03-02T04:53:28.429Z,-6.32
2018-03-02T04:53:54.530Z,-6.35
2018-03-02T04:54:20.623Z,-6.36
2018-03-02T04:54:46.738Z,-6.32
2018-03-02T04:55:12.840Z,-6.42
2018-03-02T04:55:38.940Z,-6.35
2018-03-02T04:56:05.037Z,-6.49
2018-03-02T04:56:31.136Z,-6.35
2018-03-02T04:56:57.230Z,-6.35
2018-03-02T04:57:23.331Z,-6.35
2018-03-02T04:57:49.425Z,-6.36
2018-03-02T04:58:15.520Z,-6.34
2018-03-02T04:58:41.622Z,-6.29
2018-03-02T04:59:07.714Z,-6.31
2018-03-02T04:59:33.815Z,-6.23
2018-03-02T04:59:59.925Z,-6.28
2018-03-02T05:00:26.026Z,-6.29
2018-03-02T05:00:52.126Z,-6.29
2018-03-02T05:01:18.219Z,-6.28
2018-03-02T05:01:44.323Z,-6.28
2018-03-02T05:02:10.431Z,-6.29
2018-03-02T05:02:36.533Z,-6.41
2018-03-02T05:03:02.628Z,-6.32
2018-03-02T05:03:28.717Z,-6.52
2018-03-02T05:03:54.828Z,-6.49
2018-03-02T05:04:20.923Z,-6.46
2018-03-02T05:04:47.026Z,-6.46
2018-03-02T05:05:13.125Z,-6.52
2018-03-02T05:05:39.222Z,-6.54
2018-03-02T05:06:05.314Z,-6.41
2018-03-02T05:06:31.412Z,-6.49
2018-03-02T05:06:57.505Z,-6.53
2018-03-02T05:07:23.608Z,-6.53
2018-03-02T05:07:49.704Z,-6.47
2018-03-02T05:08:15.823Z,-6.52
2018-03-02T05:08:41.917Z,-6.54
2018-03-02T05:09:08.015Z,-6.52
2018-03-02T05:09:34.126Z,-6.53
2018-03-02T05:10:00.230Z,-6.63
2018-03-02T05:10:26.329Z,-6.63
2018-03-02T05:10:52.421Z,-6.61
2018-03-02T05:11:18.522Z,-6.56
2018-03-02T05:11:44.620Z,-6.56
2018-03-02T05:12:10.714Z,-6.52
2018-03-02T05:12:36.816Z,-6.53
2018-03-02T05:13:02.910Z,-6.52
2018-03-02T05:13:29.007Z,-6.5
2018-03-02T05:13:55.107Z,-6.5
2018-03-02T05:14:21.209Z,-6.58
2018-03-02T05:14:47.341Z,-6.53
2018-03-02T05:15:13.403Z,-6.65
2018-03-02T05:15:39.499Z,-6.68
2018-03-02T05:16:05.600Z,-6.63
2018-03-02T05:16:31.703Z,-6.75
2018-03-02T05:16:57.800Z,-6.83
2018-03-02T05:17:23.891Z,-6.83
2018-03-02T05:17:49.994Z,-6.79
2018-03-02T05:18:16.093Z,-6.72
2018-03-02T05:18:42.190Z,-6.83
2018-03-02T05:19:08.283Z,-6.84
2018-03-02T05:19:34.385Z,-6.72
2018-03-02T05:20:00.487Z,-6.72
2018-03-02T05:20:26.579Z,-6.74
2018-03-02T05:20:52.675Z,-6.66
2018-03-02T05:21:18.773Z,-6.69
2018-03-02T05:21:44.873Z,-6.76
2018-03-02T05:22:10.968Z,-6.72
2018-03-02T05:22:37.063Z,-6.69
2018-03-02T05:23:03.163Z,-6.58
2018-03-02T05:23:29.257Z,-6.49
2018-03-02T05:23:55.354Z,-6.47
2018-03-02T05:24:21.455Z,-6.5
2018-03-02T05:24:47.554Z,-6.54
2018-03-02T05:25:13.650Z,-6.56
2018-03-02T05:25:39.749Z,-6.54
2018-03-02T05:26:05.873Z,-6.5
2018-03-02T05:26:31.959Z,-6.47
2018-03-02T05:26:58.077Z,-6.47
2018-03-02T05:27:24.171Z,-6.61
2018-03-02T05:27:50.275Z,-6.49
2018-03-02T05:28:16.379Z,-6.54
2018-03-02T05:28:42.465Z,-6.53
2018-03-02T05:29:08.564Z,-6.5
2018-03-02T05:29:34.674Z,-6.52
2018-03-02T05:30:00.923Z,-6.56
2018-03-02T05:30:26.867Z,-6.58
2018-03-02T05:30:52.956Z,-6.63
2018-03-02T05:31:19.061Z,-6.69
2018-03-02T05:31:45.158Z,-6.68
2018-03-02T05:32:11.261Z,-6.76
2018-03-02T05:32:37.357Z,-6.72
2018-03-02T05:33:03.450Z,-6.72
2018-03-02T05:33:29.550Z,-6.76
2018-03-02T05:33:55.643Z,-6.68
2018-03-02T05:34:21.749Z,-6.66
2018-03-02T05:34:47.842Z,-6.75
2018-03-02T05:35:13.935Z,-6.72
2018-03-02T05:35:40.031Z,-6.79
2018-03-02T05:36:06.128Z,-6.75
2018-03-02T05:36:32.224Z,-6.76
2018-03-02T05:36:58.321Z,-6.78
2018-03-02T05:37:24.420Z,-6.79
2018-03-02T05:37:50.519Z,-6.75